Time;durP1;ratioP1;P1;durP2;ratioP2;P2;SDS_P1;SDS_P2;PMS_P1;PMS_P2;Temp;Humidity;BMP_temperature;BMP_pressure;BME280_temperature;BME280_humidity;BME280_pressure;Samples;Min_cycle;Max_cycle;Signal;HPM_P1;HPM_P2
2022/01/11 00:00:38;;;;;;;7.87;5.60;;;;;;;;;;143742;607;46020;-63
2022/01/11 00:03:06;;;;;;;9.95;6.50;;;;;;;;;;143743;670;46022;-64
2022/01/11 00:05:51;;;;;;;8.60;6.32;;;;;;;;;;143741;629;46020;-63
2022/01/11 00:08:19;;;;;;;11.90;7.05;;;;;;;;;;143744;612;46020;-64
2022/01/11 00:10:52;;;;;;;11.98;7.62;;;;;;;;;;143743;636;46021;-63
2022/01/11 00:13:20;;;;;;;13.48;8.95;;;;;;;;;;143742;570;47023;-64
2022/01/11 00:15:48;;;;;;;13.00;9.15;;;;;;;;;;143741;578;46020;-63
2022/01/11 00:18:16;;;;;;;18.23;10.02;;;;;;;;;;143740;569;46021;-63
2022/01/11 00:20:43;;;;;;;15.23;10.55;;;;;;;;;;143740;589;46021;-64
2022/01/11 00:25:58;;;;;;;9.52;6.75;;;;;;;;;;143743;566;46010;-63
2022/01/11 00:28:26;;;;;;;14.48;9.52;;;;;;;;;;143739;572;46020;-63
2022/01/11 00:30:55;;;;;;;12.95;7.10;;;;;;;;;;143739;586;46020;-63
2022/01/11 00:33:38;;;;;;;14.07;9.18;;;;;;;;;;143742;584;46049;-63
2022/01/11 00:36:07;;;;;;;16.73;10.73;;;;;;;;;;143742;594;46020;-63
2022/01/11 00:38:37;;;;;;;16.85;10.43;;;;;;;;;;143742;575;46020;-63
2022/01/11 00:41:07;;;;;;;17.37;12.23;;;;;;;;;;143741;579;46020;-63
2022/01/11 00:43:36;;;;;;;18.75;13.23;;;;;;;;;;143741;659;46023;-63
2022/01/11 00:46:05;;;;;;;20.50;13.45;;;;;;;;;;143737;569;46020;-64
2022/01/11 00:48:33;;;;;;;16.12;11.95;;;;;;;;;;143732;583;46021;-63
2022/01/11 00:51:00;;;;;;;18.50;13.77;;;;;;;;;;143741;592;46021;-63
2022/01/11 00:53:28;;;;;;;20.85;14.13;;;;;;;;;;143743;584;46022;-64
2022/01/11 00:55:55;;;;;;;19.37;13.50;;;;;;;;;;143739;706;46020;-63
2022/01/11 00:58:22;;;;;;;15.52;10.13;;;;;;;;;;143739;673;46021;-63
2022/01/11 01:00:49;;;;;;;15.60;10.82;;;;;;;;;;143741;588;46020;-63
2022/01/11 01:03:17;;;;;;;15.55;9.40;;;;;;;;;;143741;580;46022;-63
2022/01/11 01:05:44;;;;;;;19.15;11.90;;;;;;;;;;143741;637;46020;-63
2022/01/11 01:08:12;;;;;;;16.15;11.23;;;;;;;;;;143740;610;46020;-64
2022/01/11 01:10:46;;;;;;;13.90;8.40;;;;;;;;;;143741;589;46020;-63
2022/01/11 01:13:17;;;;;;;14.53;10.23;;;;;;;;;;143737;579;46023;-63
2022/01/11 01:15:47;;;;;;;15.20;10.60;;;;;;;;;;143740;571;46020;-63
2022/01/11 01:18:16;;;;;;;13.68;9.68;;;;;;;;;;143740;577;46031;-63
2022/01/11 01:20:45;;;;;;;21.55;16.27;;;;;;;;;;143742;703;46020;-63
2022/01/11 01:23:13;;;;;;;24.98;17.02;;;;;;;;;;143743;670;46022;-63
2022/01/11 01:25:42;;;;;;;29.95;19.25;;;;;;;;;;143738;588;46918;-63
2022/01/11 01:28:10;;;;;;;15.15;10.05;;;;;;;;;;143741;622;46020;-64
2022/01/11 01:30:37;;;;;;;25.90;17.35;;;;;;;;;;143743;626;46020;-63
2022/01/11 01:33:05;;;;;;;19.80;13.43;;;;;;;;;;143742;574;46022;-63
2022/01/11 01:35:39;;;;;;;17.73;12.88;;;;;;;;;;143739;592;46020;-64
2022/01/11 01:38:07;;;;;;;12.65;9.52;;;;;;;;;;143735;569;46020;-64
2022/01/11 01:40:45;;;;;;;14.00;10.73;;;;;;;;;;143743;669;46020;-63
2022/01/11 01:43:14;;;;;;;13.62;11.25;;;;;;;;;;143742;590;46022;-63
2022/01/11 01:45:43;;;;;;;14.38;9.90;;;;;;;;;;143737;587;46020;-63
2022/01/11 01:48:12;;;;;;;15.82;11.80;;;;;;;;;;143733;569;46021;-63
2022/01/11 01:50:39;;;;;;;15.98;12.23;;;;;;;;;;143738;625;46020;-64
2022/01/11 01:53:10;;;;;;;18.23;13.70;;;;;;;;;;143743;641;46022;-63
2022/01/11 01:55:42;;;;;;;13.57;10.98;;;;;;;;;;143740;581;46021;-63
2022/01/11 01:58:10;;;;;;;18.33;11.38;;;;;;;;;;143742;696;46020;-63
2022/01/11 02:00:42;;;;;;;14.60;11.00;;;;;;;;;;143741;585;46020;-63
2022/01/11 02:03:12;;;;;;;12.63;9.80;;;;;;;;;;143737;648;46022;-62
2022/01/11 02:05:40;;;;;;;11.93;9.60;;;;;;;;;;143740;565;47010;-63
2022/01/11 02:08:09;;;;;;;13.38;9.63;;;;;;;;;;143742;593;46020;-63
2022/01/11 02:10:39;;;;;;;15.48;9.88;;;;;;;;;;143745;567;46020;-63
2022/01/11 02:13:08;;;;;;;14.75;11.00;;;;;;;;;;143742;586;46022;-63
2022/01/11 02:15:35;;;;;;;17.95;12.15;;;;;;;;;;143741;650;46020;-63
2022/01/11 02:18:10;;;;;;;15.15;9.48;;;;;;;;;;143742;593;46020;-63
2022/01/11 02:20:39;;;;;;;19.50;12.43;;;;;;;;;;143741;578;46020;-63
2022/01/11 02:23:07;;;;;;;16.75;10.93;;;;;;;;;;143741;604;46022;-63
2022/01/11 02:25:35;;;;;;;12.32;9.40;;;;;;;;;;143739;586;46021;-63
2022/01/11 02:28:03;;;;;;;18.37;12.37;;;;;;;;;;143735;686;46020;-64
2022/01/11 02:30:32;;;;;;;20.88;13.98;;;;;;;;;;143740;583;46020;-63
2022/01/11 02:33:01;;;;;;;15.32;11.18;;;;;;;;;;143742;578;46022;-63
2022/01/11 02:35:28;;;;;;;14.68;9.50;;;;;;;;;;143738;603;46020;-63
2022/01/11 02:37:55;;;;;;;12.02;9.30;;;;;;;;;;143730;625;47010;-63
2022/01/11 02:40:22;;;;;;;13.62;9.63;;;;;;;;;;143744;564;46021;-63
2022/01/11 02:42:49;;;;;;;16.42;12.07;;;;;;;;;;143741;564;46051;-64
2022/01/11 02:45:19;;;;;;;16.05;10.73;;;;;;;;;;143741;585;46020;-64
2022/01/11 02:47:48;;;;;;;17.73;11.35;;;;;;;;;;143739;642;46021;-63
2022/01/11 02:50:17;;;;;;;16.23;11.48;;;;;;;;;;143742;638;46020;-63
2022/01/11 02:52:44;;;;;;;11.85;8.77;;;;;;;;;;143737;600;46022;-64
2022/01/11 02:55:13;;;;;;;11.15;7.07;;;;;;;;;;143741;571;46020;-63
2022/01/11 02:57:41;;;;;;;12.07;7.12;;;;;;;;;;143740;589;46020;-63
2022/01/11 03:00:11;;;;;;;11.98;8.10;;;;;;;;;;143742;610;46020;-63
2022/01/11 03:02:38;;;;;;;11.45;8.40;;;;;;;;;;143745;622;46022;-63
2022/01/11 03:05:07;;;;;;;10.57;7.80;;;;;;;;;;143742;566;46010;-64
2022/01/11 03:07:34;;;;;;;13.13;7.72;;;;;;;;;;143740;566;46020;-64
2022/01/11 03:10:11;;;;;;;10.75;7.03;;;;;;;;;;143743;585;46020;-63
2022/01/11 03:12:40;;;;;;;9.55;6.65;;;;;;;;;;143729;609;46023;-64
2022/01/11 03:15:08;;;;;;;8.98;5.68;;;;;;;;;;143739;569;46020;-63
2022/01/11 03:17:35;;;;;;;8.07;6.22;;;;;;;;;;143735;590;46025;-63
2022/01/11 03:20:02;;;;;;;8.95;6.07;;;;;;;;;;143742;594;46020;-63
2022/01/11 03:22:29;;;;;;;12.85;5.35;;;;;;;;;;143740;571;47022;-63
2022/01/11 03:24:56;;;;;;;5.50;3.80;;;;;;;;;;143740;586;46010;-64
2022/01/11 03:27:23;;;;;;;7.62;4.60;;;;;;;;;;143741;577;46020;-64
2022/01/11 03:29:52;;;;;;;10.90;5.68;;;;;;;;;;143743;569;46020;-64
2022/01/11 03:32:19;;;;;;;13.40;5.40;;;;;;;;;;143742;610;46051;-63
2022/01/11 03:34:47;;;;;;;7.95;5.20;;;;;;;;;;143742;601;46020;-63
2022/01/11 03:37:16;;;;;;;9.00;5.20;;;;;;;;;;143741;577;46911;-64
2022/01/11 03:39:43;;;;;;;8.80;4.82;;;;;;;;;;143744;581;46021;-63
2022/01/11 03:42:11;;;;;;;6.72;4.28;;;;;;;;;;143735;679;47020;-63
2022/01/11 03:44:38;;;;;;;7.12;4.57;;;;;;;;;;143741;584;46010;-64
2022/01/11 03:47:05;;;;;;;6.82;4.05;;;;;;;;;;143741;661;46020;-63
2022/01/11 03:49:33;;;;;;;7.35;4.85;;;;;;;;;;143739;582;46020;-65
2022/01/11 03:52:00;;;;;;;4.95;3.62;;;;;;;;;;143739;631;47022;-63
2022/01/11 03:54:30;;;;;;;7.25;4.70;;;;;;;;;;143740;615;46021;-64
2022/01/11 03:56:57;;;;;;;6.10;4.22;;;;;;;;;;143739;564;46020;-63
2022/01/11 03:59:24;;;;;;;8.13;5.05;;;;;;;;;;143740;609;46020;-65
2022/01/11 04:01:51;;;;;;;8.02;4.03;;;;;;;;;;143739;615;46022;-63
2022/01/11 04:04:19;;;;;;;5.03;3.80;;;;;;;;;;143740;614;46020;-63
2022/01/11 04:06:46;;;;;;;5.72;3.80;;;;;;;;;;143732;574;46033;-63
2022/01/11 04:09:13;;;;;;;12.95;4.95;;;;;;;;;;143740;628;46021;-63
2022/01/11 04:11:40;;;;;;;9.18;5.07;;;;;;;;;;143742;626;46022;-63
2022/01/11 04:14:08;;;;;;;9.75;4.87;;;;;;;;;;143738;571;47010;-64
2022/01/11 04:16:35;;;;;;;8.77;5.25;;;;;;;;;;143736;654;46034;-63
2022/01/11 04:19:03;;;;;;;9.60;4.68;;;;;;;;;;143738;589;46020;-63
2022/01/11 04:21:30;;;;;;;11.30;5.55;;;;;;;;;;143740;635;46022;-63
2022/01/11 04:23:57;;;;;;;9.55;4.95;;;;;;;;;;143739;594;46021;-63
2022/01/11 04:26:24;;;;;;;10.73;5.00;;;;;;;;;;143740;580;46020;-63
2022/01/11 04:28:51;;;;;;;10.25;5.65;;;;;;;;;;143740;614;46020;-63
2022/01/11 04:31:18;;;;;;;10.13;5.65;;;;;;;;;;143734;569;46021;-63
2022/01/11 04:33:45;;;;;;;8.15;5.15;;;;;;;;;;143740;566;46020;-64
2022/01/11 04:36:13;;;;;;;8.13;5.30;;;;;;;;;;143740;593;46020;-64
2022/01/11 04:38:41;;;;;;;13.02;6.43;;;;;;;;;;143741;587;46020;-62
2022/01/11 04:41:08;;;;;;;12.20;6.50;;;;;;;;;;143740;645;46022;-62
2022/01/11 04:43:35;;;;;;;16.62;7.12;;;;;;;;;;143732;634;48020;-62
2022/01/11 04:46:02;;;;;;;15.57;6.07;;;;;;;;;;143741;575;46020;-62
2022/01/11 04:48:32;;;;;;;14.00;6.45;;;;;;;;;;143739;580;46020;-62
2022/01/11 04:51:03;;;;;;;16.62;8.00;;;;;;;;;;143741;581;46022;-62
2022/01/11 04:53:30;;;;;;;16.45;8.20;;;;;;;;;;143740;585;46010;-62
2022/01/11 04:55:57;;;;;;;16.23;7.97;;;;;;;;;;143732;589;46020;-63
2022/01/11 04:58:25;;;;;;;13.18;6.45;;;;;;;;;;143741;681;46020;-62
2022/01/11 05:00:55;;;;;;;18.42;7.15;;;;;;;;;;143742;565;46022;-63
2022/01/11 05:03:22;;;;;;;20.25;8.15;;;;;;;;;;143739;575;46020;-63
2022/01/11 05:05:49;;;;;;;19.23;8.25;;;;;;;;;;143733;572;46020;-63
2022/01/11 05:08:16;;;;;;;18.23;8.93;;;;;;;;;;143741;610;46020;-63
2022/01/11 05:10:42;;;;;;;19.55;8.40;;;;;;;;;;143741;570;46049;-63
2022/01/11 05:13:13;;;;;;;20.48;8.93;;;;;;;;;;143740;672;46010;-63
2022/01/11 05:15:41;;;;;;;18.90;7.95;;;;;;;;;;143737;580;46021;-64
2022/01/11 05:18:09;;;;;;;16.95;9.02;;;;;;;;;;143739;571;46020;-63
2022/01/11 05:20:37;;;;;;;18.77;8.15;;;;;;;;;;143736;589;46022;-63
2022/01/11 05:23:04;;;;;;;21.77;8.93;;;;;;;;;;143740;649;46020;-64
2022/01/11 05:25:31;;;;;;;19.70;8.55;;;;;;;;;;143737;593;46020;-66
2022/01/11 05:27:59;;;;;;;20.12;7.97;;;;;;;;;;143740;585;46020;-64
2022/01/11 05:30:29;;;;;;;23.35;9.18;;;;;;;;;;143739;585;47022;-63
2022/01/11 05:32:57;;;;;;;19.15;8.85;;;;;;;;;;143739;578;46020;-63
2022/01/11 05:35:25;;;;;;;16.35;7.90;;;;;;;;;;143737;590;46020;-64
2022/01/11 05:37:53;;;;;;;18.30;8.30;;;;;;;;;;143738;567;46020;-63
2022/01/11 05:40:22;;;;;;;18.90;8.32;;;;;;;;;;143739;592;46023;-64
2022/01/11 05:42:50;;;;;;;20.80;10.05;;;;;;;;;;143740;574;46010;-64
2022/01/11 05:45:18;;;;;;;21.95;9.15;;;;;;;;;;143732;564;46021;-63
2022/01/11 05:47:47;;;;;;;19.37;8.95;;;;;;;;;;143739;586;46021;-64
2022/01/11 05:50:15;;;;;;;15.13;8.23;;;;;;;;;;143742;642;46022;-64
2022/01/11 05:52:42;;;;;;;18.27;9.65;;;;;;;;;;143738;712;46021;-63
2022/01/11 05:55:11;;;;;;;19.42;10.93;;;;;;;;;;143739;679;46021;-64
2022/01/11 05:57:38;;;;;;;18.02;9.27;;;;;;;;;;143738;582;46020;-65
2022/01/11 06:00:08;;;;;;;15.43;8.32;;;;;;;;;;143739;593;47021;-64
2022/01/11 06:02:35;;;;;;;20.80;10.38;;;;;;;;;;143740;680;46010;-64
2022/01/11 06:05:02;;;;;;;15.30;8.43;;;;;;;;;;143739;592;46020;-64
2022/01/11 06:07:28;;;;;;;18.37;8.38;;;;;;;;;;143742;597;46020;-63
2022/01/11 06:09:55;;;;;;;17.87;8.75;;;;;;;;;;143732;604;49023;-65
2022/01/11 06:12:22;;;;;;;16.30;8.60;;;;;;;;;;143738;649;46020;-64
2022/01/11 06:14:49;;;;;;;16.90;9.75;;;;;;;;;;143738;601;46021;-64
2022/01/11 06:17:16;;;;;;;18.62;9.15;;;;;;;;;;143740;646;46021;-64
2022/01/11 06:19:43;;;;;;;20.48;9.77;;;;;;;;;;143743;586;46022;-64
2022/01/11 06:22:11;;;;;;;16.77;8.18;;;;;;;;;;143738;576;46020;-64
2022/01/11 06:24:38;;;;;;;16.12;8.48;;;;;;;;;;143739;705;46021;-65
2022/01/11 06:27:05;;;;;;;13.43;8.35;;;;;;;;;;143741;641;46020;-64
2022/01/11 06:29:33;;;;;;;11.85;6.62;;;;;;;;;;143741;594;46022;-63
2022/01/11 06:32:00;;;;;;;13.82;7.47;;;;;;;;;;143739;567;46010;-65
2022/01/11 06:34:29;;;;;;;12.37;6.40;;;;;;;;;;143733;577;46020;-64
2022/01/11 06:37:00;;;;;;;12.77;7.62;;;;;;;;;;143735;587;46021;-65
2022/01/11 06:39:27;;;;;;;18.45;7.82;;;;;;;;;;143741;583;46023;-64
2022/01/11 06:41:54;;;;;;;15.38;6.35;;;;;;;;;;143738;642;46020;-65
2022/01/11 06:44:21;;;;;;;13.30;5.93;;;;;;;;;;143737;588;46046;-66
2022/01/11 06:46:48;;;;;;;13.75;5.97;;;;;;;;;;143738;598;46021;-64
2022/01/11 06:49:18;;;;;;;20.33;7.45;;;;;;;;;;143738;590;46022;-65
2022/01/11 06:51:45;;;;;;;14.23;7.37;;;;;;;;;;143740;640;46020;-65
2022/01/11 06:54:12;;;;;;;14.15;5.62;;;;;;;;;;143739;638;46021;-64
2022/01/11 06:56:42;;;;;;;11.20;5.10;;;;;;;;;;143742;620;46020;-65
2022/01/11 06:59:09;;;;;;;13.57;5.28;;;;;;;;;;143733;600;47021;-64
2022/01/11 07:01:36;;;;;;;20.65;10.02;;;;;;;;;;143737;656;46918;-65
2022/01/11 07:04:03;;;;;;;20.10;11.70;;;;;;;;;;143738;630;46020;-66
2022/01/11 07:06:30;;;;;;;16.85;6.25;;;;;;;;;;143738;628;46020;-65
2022/01/11 07:08:57;;;;;;;22.58;7.75;;;;;;;;;;143739;637;46023;-66
2022/01/11 07:11:24;;;;;;;9.75;4.50;;;;;;;;;;143739;573;46020;-66
2022/01/11 07:13:51;;;;;;;12.55;6.97;;;;;;;;;;143739;588;46020;-64
2022/01/11 07:16:18;;;;;;;17.42;7.78;;;;;;;;;;143742;633;46021;-65
2022/01/11 07:18:47;;;;;;;12.23;4.57;;;;;;;;;;143741;620;46022;-65
2022/01/11 07:21:16;;;;;;;9.73;4.85;;;;;;;;;;143739;583;46020;-64
2022/01/11 07:23:43;;;;;;;8.98;5.03;;;;;;;;;;143733;570;46911;-67
2022/01/11 07:26:10;;;;;;;14.35;6.35;;;;;;;;;;143739;598;46020;-64
2022/01/11 07:28:37;;;;;;;29.60;15.30;;;;;;;;;;143741;637;47020;-65
2022/01/11 07:31:05;;;;;;;15.82;8.23;;;;;;;;;;143737;652;46021;-65
2022/01/11 07:33:32;;;;;;;22.52;13.20;;;;;;;;;;143740;595;46020;-66
2022/01/11 07:35:59;;;;;;;15.32;7.05;;;;;;;;;;143739;647;46020;-64
2022/01/11 07:38:25;;;;;;;10.30;6.25;;;;;;;;;;143740;646;46023;-64
2022/01/11 07:40:55;;;;;;;11.18;5.37;;;;;;;;;;143740;612;46010;-65
2022/01/11 07:43:23;;;;;;;19.25;9.30;;;;;;;;;;143739;563;46035;-64
2022/01/11 07:45:49;;;;;;;16.75;7.15;;;;;;;;;;143738;570;46022;-66
2022/01/11 07:48:17;;;;;;;16.70;6.62;;;;;;;;;;143735;622;46022;-64
2022/01/11 07:50:44;;;;;;;9.43;6.15;;;;;;;;;;143740;576;46021;-65
2022/01/11 07:53:11;;;;;;;14.70;5.25;;;;;;;;;;143740;574;46021;-66
2022/01/11 07:55:38;;;;;;;10.82;5.12;;;;;;;;;;143741;610;46020;-65
2022/01/11 07:58:05;;;;;;;8.85;4.53;;;;;;;;;;143741;608;47021;-64
2022/01/11 08:00:32;;;;;;;6.43;3.40;;;;;;;;;;143738;656;46021;-65
2022/01/11 08:02:59;;;;;;;6.90;4.43;;;;;;;;;;143740;716;46020;-65
2022/01/11 08:05:26;;;;;;;7.60;4.55;;;;;;;;;;143740;574;46020;-64
2022/01/11 08:07:53;;;;;;;9.13;4.90;;;;;;;;;;143740;635;46025;-64
2022/01/11 08:10:21;;;;;;;11.32;4.72;;;;;;;;;;143739;581;46020;-64
2022/01/11 08:12:48;;;;;;;7.90;4.40;;;;;;;;;;143734;616;46020;-63
2022/01/11 08:15:17;;;;;;;7.70;3.80;;;;;;;;;;143744;647;46021;-64
2022/01/11 08:17:46;;;;;;;6.80;3.08;;;;;;;;;;143740;593;47022;-63
2022/01/11 08:20:14;;;;;;;5.45;2.72;;;;;;;;;;143739;606;46020;-63
2022/01/11 08:22:41;;;;;;;8.27;4.72;;;;;;;;;;143741;589;46021;-63
2022/01/11 08:25:09;;;;;;;18.40;10.70;;;;;;;;;;143742;585;46020;-62
2022/01/11 08:27:36;;;;;;;28.33;20.40;;;;;;;;;;143739;591;47020;-62
2022/01/11 08:30:05;;;;;;;8.50;5.70;;;;;;;;;;143737;569;46010;-62
2022/01/11 08:32:32;;;;;;;18.95;13.30;;;;;;;;;;143740;573;46020;-64
2022/01/11 08:34:59;;;;;;;10.18;4.95;;;;;;;;;;143738;579;46020;-63
2022/01/11 08:37:26;;;;;;;8.82;4.75;;;;;;;;;;143734;640;46022;-62
2022/01/11 08:39:53;;;;;;;1.10;0.90;;;;;;;;;;143740;579;46010;-62
2022/01/11 08:42:20;;;;;;;6.72;4.45;;;;;;;;;;143738;616;46020;-62
2022/01/11 08:44:49;;;;;;;5.22;2.95;;;;;;;;;;143739;575;46021;-63
2022/01/11 08:47:17;;;;;;;5.70;3.53;;;;;;;;;;143743;592;46022;-64
2022/01/11 08:49:45;;;;;;;6.93;2.78;;;;;;;;;;143740;606;46010;-64
2022/01/11 08:52:12;;;;;;;9.18;4.15;;;;;;;;;;143737;565;46029;-63
2022/01/11 08:54:40;;;;;;;3.67;2.22;;;;;;;;;;143738;571;46020;-63
2022/01/11 08:57:07;;;;;;;3.80;2.40;;;;;;;;;;143742;585;46022;-64
2022/01/11 08:59:35;;;;;;;6.22;3.25;;;;;;;;;;143740;606;46011;-63
2022/01/11 09:02:04;;;;;;;8.50;5.07;;;;;;;;;;143733;563;46020;-64
2022/01/11 09:04:33;;;;;;;3.83;2.75;;;;;;;;;;143739;578;46020;-63
2022/01/11 09:07:00;;;;;;;5.60;3.58;;;;;;;;;;143738;575;47021;-64
2022/01/11 09:09:28;;;;;;;4.87;3.47;;;;;;;;;;143739;577;46917;-64
2022/01/11 09:11:57;;;;;;;5.80;3.65;;;;;;;;;;143740;586;46020;-65
2022/01/11 09:14:24;;;;;;;6.12;3.50;;;;;;;;;;143741;589;46021;-64
2022/01/11 09:16:51;;;;;;;5.20;3.33;;;;;;;;;;143739;564;46023;-64
2022/01/11 09:19:19;;;;;;;3.80;2.90;;;;;;;;;;143739;571;46020;-64
2022/01/11 09:21:46;;;;;;;14.75;4.10;;;;;;;;;;143737;599;46021;-66
2022/01/11 09:24:19;;;;;;;11.85;4.93;;;;;;;;;;143741;577;46020;-67
2022/01/11 09:26:47;;;;;;;8.25;3.45;;;;;;;;;;143735;661;46022;-67
2022/01/11 09:29:14;;;;;;;5.95;4.37;;;;;;;;;;143739;652;46021;-67
2022/01/11 09:31:42;;;;;;;6.72;4.03;;;;;;;;;;143741;588;46020;-66
2022/01/11 09:34:08;;;;;;;13.18;5.20;;;;;;;;;;143741;571;46020;-67
2022/01/11 09:36:38;;;;;;;9.88;4.80;;;;;;;;;;143742;625;46023;-66
2022/01/11 09:39:05;;;;;;;9.88;4.85;;;;;;;;;;143739;637;46020;-66
2022/01/11 09:41:33;;;;;;;11.82;4.28;;;;;;;;;;143738;569;46020;-66
2022/01/11 09:44:00;;;;;;;7.65;4.37;;;;;;;;;;143737;565;46021;-65
2022/01/11 09:46:28;;;;;;;10.40;4.25;;;;;;;;;;143742;588;46022;-64
2022/01/11 09:48:57;;;;;;;7.68;4.62;;;;;;;;;;143739;577;46020;-64
2022/01/11 09:51:24;;;;;;;10.43;4.53;;;;;;;;;;143735;571;46021;-64
2022/01/11 09:53:51;;;;;;;6.37;3.80;;;;;;;;;;143740;587;46020;-65
2022/01/11 09:56:18;;;;;;;10.00;4.85;;;;;;;;;;143740;577;46022;-63
2022/01/11 09:58:48;;;;;;;9.32;5.22;;;;;;;;;;143740;579;46021;-64
2022/01/11 10:01:15;;;;;;;8.52;4.55;;;;;;;;;;143741;688;46020;-64
2022/01/11 10:04:05;;;;;;;10.18;5.62;;;;;;;;;;143739;592;46020;-64
2022/01/11 10:06:34;;;;;;;9.15;4.60;;;;;;;;;;143740;602;47023;-64
2022/01/11 10:09:21;;;;;;;5.95;3.87;;;;;;;;;;143740;584;46020;-64
2022/01/11 10:11:50;;;;;;;10.43;4.78;;;;;;;;;;143738;636;46020;-64
2022/01/11 10:14:31;;;;;;;8.00;4.22;;;;;;;;;;143737;600;47021;-65
2022/01/11 10:17:22;;;;;;;6.65;3.67;;;;;;;;;;143736;582;46022;-63
2022/01/11 10:20:13;;;;;;;8.05;4.05;;;;;;;;;;143742;597;46010;-64
2022/01/11 10:23:13;;;;;;;9.18;4.00;;;;;;;;;;143739;606;46021;-64
2022/01/11 10:25:47;;;;;;;4.97;3.45;;;;;;;;;;143742;589;46022;-65
2022/01/11 10:28:14;;;;;;;13.82;9.30;;;;;;;;;;143739;670;46022;-63
2022/01/11 10:30:41;;;;;;;13.50;8.10;;;;;;;;;;143740;576;46010;-63
2022/01/11 10:33:09;;;;;;;12.23;7.68;;;;;;;;;;143740;573;46020;-63
2022/01/11 10:35:44;;;;;;;13.88;9.25;;;;;;;;;;143742;663;46021;-63
2022/01/11 10:38:13;;;;;;;6.35;3.28;;;;;;;;;;143740;590;46023;-63
2022/01/11 10:40:45;;;;;;;18.48;8.48;;;;;;;;;;143739;571;46010;-61
2022/01/11 10:43:15;;;;;;;9.50;4.00;;;;;;;;;;143733;570;46021;-63
2022/01/11 10:45:47;;;;;;;9.00;5.80;;;;;;;;;;143742;661;46020;-61
2022/01/11 10:48:18;;;;;;;16.50;8.30;;;;;;;;;;143740;610;46022;-61
2022/01/11 10:50:50;;;;;;;12.10;5.97;;;;;;;;;;143739;606;46020;-62
2022/01/11 10:53:22;;;;;;;11.35;5.68;;;;;;;;;;143738;585;46020;-63
2022/01/11 10:55:52;;;;;;;26.10;17.15;;;;;;;;;;143743;599;46020;-62
2022/01/11 10:58:19;;;;;;;9.85;4.90;;;;;;;;;;143739;602;46042;-62
2022/01/11 11:01:07;;;;;;;13.18;7.50;;;;;;;;;;143740;651;46010;-61
2022/01/11 11:03:35;;;;;;;27.98;17.87;;;;;;;;;;143740;583;46022;-62
2022/01/11 11:06:11;;;;;;;36.72;21.77;;;;;;;;;;143741;651;46021;-61
2022/01/11 11:08:44;;;;;;;12.13;8.48;;;;;;;;;;143736;569;46022;-62
2022/01/11 11:11:20;;;;;;;17.92;10.93;;;;;;;;;;143741;585;46010;-62
2022/01/11 11:13:51;;;;;;;22.00;16.15;;;;;;;;;;143739;610;46021;-61
2022/01/11 11:16:30;;;;;;;7.85;4.22;;;;;;;;;;143741;602;46020;-61
2022/01/11 11:18:59;;;;;;;10.32;5.62;;;;;;;;;;143740;580;46034;-61
2022/01/11 11:21:32;;;;;;;7.57;4.57;;;;;;;;;;143741;569;46010;-62
2022/01/11 11:24:07;;;;;;;10.23;5.05;;;;;;;;;;143740;652;46020;-62
2022/01/11 11:26:44;;;;;;;7.87;4.10;;;;;;;;;;143742;572;46020;-62
2022/01/11 11:29:15;;;;;;;11.48;6.00;;;;;;;;;;143737;575;47029;-61
2022/01/11 11:31:42;;;;;;;5.95;3.83;;;;;;;;;;143739;585;46020;-62
2022/01/11 11:34:10;;;;;;;11.60;8.75;;;;;;;;;;143734;707;46020;-61
2022/01/11 11:36:41;;;;;;;11.30;7.72;;;;;;;;;;143742;570;46021;-61
2022/01/11 11:39:19;;;;;;;9.20;4.60;;;;;;;;;;143739;573;47022;-61
2022/01/11 11:41:52;;;;;;;10.43;4.10;;;;;;;;;;143742;567;46011;-61
2022/01/11 11:44:21;;;;;;;9.55;4.37;;;;;;;;;;143742;591;46021;-61
2022/01/11 11:47:02;;;;;;;6.35;3.87;;;;;;;;;;143744;616;46020;-61
2022/01/11 11:50:03;;;;;;;7.53;4.15;;;;;;;;;;143741;566;46022;-61
2022/01/11 11:52:42;;;;;;;10.68;3.72;;;;;;;;;;143741;579;46010;-61
2022/01/11 11:55:16;;;;;;;6.50;2.83;;;;;;;;;;143741;571;46020;-61
2022/01/11 11:57:44;;;;;;;7.25;3.25;;;;;;;;;;143743;567;46020;-61
2022/01/11 12:00:23;;;;;;;7.40;3.72;;;;;;;;;;143735;574;46039;-62
2022/01/11 12:03:13;;;;;;;5.87;3.42;;;;;;;;;;143741;626;46010;-62
2022/01/11 12:05:47;;;;;;;11.50;3.97;;;;;;;;;;143742;577;46021;-61
2022/01/11 12:08:37;;;;;;;10.52;3.80;;;;;;;;;;143741;571;46020;-61
2022/01/11 12:11:08;;;;;;;9.45;3.60;;;;;;;;;;143740;669;47020;-61
2022/01/11 12:13:49;;;;;;;9.27;3.42;;;;;;;;;;143742;578;46010;-62
2022/01/11 12:16:44;;;;;;;7.18;3.22;;;;;;;;;;143742;597;46020;-60
2022/01/11 12:19:47;;;;;;;11.27;3.80;;;;;;;;;;143743;618;46020;-61
2022/01/11 12:22:19;;;;;;;6.93;3.25;;;;;;;;;;143743;581;46023;-57
2022/01/11 12:24:48;;;;;;;12.85;4.00;;;;;;;;;;143741;652;46020;-57
2022/01/11 12:27:19;;;;;;;7.45;3.30;;;;;;;;;;143734;624;46021;-56
2022/01/11 12:30:07;;;;;;;13.15;4.43;;;;;;;;;;143744;651;46021;-57
2022/01/11 12:32:56;;;;;;;8.38;3.92;;;;;;;;;;143740;579;47020;-56
2022/01/11 12:35:23;;;;;;;7.87;3.50;;;;;;;;;;143741;566;46019;-56
2022/01/11 12:38:06;;;;;;;8.98;3.80;;;;;;;;;;143742;593;46020;-56
2022/01/11 12:40:38;;;;;;;5.70;2.85;;;;;;;;;;143742;601;46020;-55
2022/01/11 12:43:08;;;;;;;10.55;5.15;;;;;;;;;;143741;611;46023;-56
2022/01/11 12:46:09;;;;;;;9.20;4.25;;;;;;;;;;143740;591;46024;-56
2022/01/11 12:49:06;;;;;;;14.63;5.35;;;;;;;;;;143742;573;46022;-57
2022/01/11 12:51:50;;;;;;;9.57;4.53;;;;;;;;;;143742;566;46021;-56
2022/01/11 12:54:27;;;;;;;7.47;3.50;;;;;;;;;;143725;575;47022;-57
2022/01/11 12:57:00;;;;;;;7.82;2.90;;;;;;;;;;143741;656;46011;-56
2022/01/11 12:59:31;;;;;;;8.02;3.10;;;;;;;;;;143740;647;46020;-57
2022/01/11 13:02:13;;;;;;;12.43;3.55;;;;;;;;;;143743;606;46020;-57
2022/01/11 13:04:53;;;;;;;8.90;3.70;;;;;;;;;;143741;589;46022;-56
2022/01/11 13:07:23;;;;;;;14.55;3.92;;;;;;;;;;143742;625;46010;-56
2022/01/11 13:10:22;;;;;;;14.68;4.53;;;;;;;;;;143742;619;46020;-56
2022/01/11 13:13:08;;;;;;;12.77;3.78;;;;;;;;;;143743;583;46021;-57
2022/01/11 13:15:37;;;;;;;;;;;;;;;;;;143746;982;46022;-57
2022/01/11 13:18:09;;;;;;;11.95;3.47;;;;;;;;;;143746;590;46010;-58
2022/01/11 13:20:38;;;;;;;21.08;4.95;;;;;;;;;;143735;593;46021;-57
2022/01/11 13:23:18;;;;;;;10.02;3.87;;;;;;;;;;143742;574;46020;-57
2022/01/11 13:25:54;;;;;;;11.98;4.43;;;;;;;;;;143740;626;47030;-56
2022/01/11 13:28:48;;;;;;;12.80;4.00;;;;;;;;;;143742;576;46010;-56
2022/01/11 13:31:18;;;;;;;10.82;3.20;;;;;;;;;;143738;658;46911;-56
2022/01/11 13:33:53;;;;;;;10.35;3.80;;;;;;;;;;143744;570;46021;-57
2022/01/11 13:36:23;;;;;;;;;;;;;;;;;;143744;964;46042;-56
2022/01/11 13:38:54;;;;;;;8.95;3.45;;;;;;;;;;143747;612;46010;-55
2022/01/11 13:41:36;;;;;;;12.20;3.75;;;;;;;;;;143742;566;46021;-56
2022/01/11 13:44:14;;;;;;;10.18;3.92;;;;;;;;;;143743;608;46020;-56
2022/01/11 13:47:04;;;;;;;9.68;3.40;;;;;;;;;;143736;595;46051;-56
2022/01/11 13:49:37;;;;;;;14.95;3.30;;;;;;;;;;143742;567;46010;-57
2022/01/11 13:52:17;;;;;;;10.32;3.75;;;;;;;;;;143741;564;46020;-56
2022/01/11 13:54:53;;;;;;;5.72;2.62;;;;;;;;;;143743;640;46020;-56
2022/01/11 13:57:27;;;;;;;10.68;3.85;;;;;;;;;;143741;627;46023;-56
2022/01/11 14:00:09;;;;;;;10.23;3.30;;;;;;;;;;143743;565;46010;-56
2022/01/11 14:02:38;;;;;;;12.00;3.60;;;;;;;;;;143740;623;46020;-56
2022/01/11 14:05:07;;;;;;;7.97;2.70;;;;;;;;;;143744;573;46021;-56
2022/01/11 14:07:36;;;;;;;12.75;3.80;;;;;;;;;;143741;630;46045;-56
2022/01/11 14:10:14;;;;;;;10.55;3.30;;;;;;;;;;143742;627;46010;-56
2022/01/11 14:12:46;;;;;;;9.23;3.47;;;;;;;;;;143735;636;46023;-55
2022/01/11 14:15:15;;;;;;;8.35;3.50;;;;;;;;;;143743;590;46020;-56
2022/01/11 14:17:43;;;;;;;11.82;3.83;;;;;;;;;;143740;577;46022;-56
2022/01/11 14:20:22;;;;;;;8.43;2.70;;;;;;;;;;143742;666;46010;-56
2022/01/11 14:22:55;;;;;;;8.77;2.65;;;;;;;;;;143742;639;46020;-55
2022/01/11 14:25:38;;;;;;;7.22;2.72;;;;;;;;;;143743;622;46020;-57
2022/01/11 14:28:16;;;;;;;7.95;2.33;;;;;;;;;;143737;578;47023;-56
2022/01/11 14:30:49;;;;;;;5.93;2.50;;;;;;;;;;143742;565;46020;-56
2022/01/11 14:33:45;;;;;;;6.50;2.28;;;;;;;;;;143740;569;46020;-55
2022/01/11 14:36:19;;;;;;;5.03;2.08;;;;;;;;;;143742;628;46023;-55
2022/01/11 14:39:10;;;;;;;9.88;3.58;;;;;;;;;;143736;593;47020;-56
2022/01/11 14:41:48;;;;;;;6.62;2.78;;;;;;;;;;143742;616;46010;-57
2022/01/11 14:44:20;;;;;;;5.90;2.28;;;;;;;;;;143741;635;46020;-58
2022/01/11 14:47:02;;;;;;;14.32;3.92;;;;;;;;;;143740;581;46020;-57
2022/01/11 14:49:34;;;;;;;5.57;2.40;;;;;;;;;;143739;567;47023;-57
2022/01/11 14:52:05;;;;;;;7.75;2.03;;;;;;;;;;143743;577;46010;-57
2022/01/11 14:54:34;;;;;;;5.78;2.80;;;;;;;;;;143740;571;46020;-59
2022/01/11 14:57:09;;;;;;;5.28;2.03;;;;;;;;;;143742;566;46021;-56